Main page
METAR-TAF:

METAR-TAF

Airports :

Montpellier–Méditerranée Airport

Montpellier, France

latitude: 43-35N, longitude: 003-58E, elevation: 5 m

Current weather observation

The report was made 35 minutes ago, at 08:30 UTC
Wind 14 kt from the North
Temperature 26°C
Humidity 42%
Pressure 1017 hPa
Visibility 10 km or more
no clouds below 1500 m and no cumulonimbus

METAR: LFMT 150830Z AUTO 36014KT CAVOK 26/12 Q1017 NOSIG

Time: 11:05 (09:05 UTC)

Forecast

The report was made 1 hour and 5 minutes ago, at 08:00 UTC
Forecast valid from 15 at 09 UTC to 16 at 09 UTC
Wind 12 kt from the North
Visibility 10 km or more
no clouds below 1500 m and no cumulonimbus
Becoming
from 15 at 11 UTC to 15 at 14 UTC
Wind 12 kt from the South/Southwest
Becoming
from 15 at 17 UTC to 15 at 20 UTC
Wind 2 kt from variable directions
Temporary
from 16 at 04 UTC to 16 at 09 UTC
Wind 12 kt from the North/Northeast

TAF: LFMT 150800Z 1509/1609 36012KT CAVOK BECMG 1511/1514 20012KT BECMG 1517/1520 VRB02KT TEMPO 1604/1609 02012KT

Weather observations and forecasts of more than 4000 airports (METAR and TAF reports).

The available stations are represented by yellow and red dots on the map.

Hover mouse over dot to see the name of the station.

Then click to see weather observations and forecasts.

To change the map : click on the green buttons with a black cross to zoom in, on the green button with a dash to zoom out, or on the green arrows for adjacent maps.


METAR-TAF: